Авиационная погода в Пулково

Регион: 
Погода METAR: 
ULLI 271200Z 31005MPS 9999 -SHRASN SCT010 BKN023CB OVC036 02/00 Q1016 R28L/290050 NOSIG
Время наблюдения
2021-02-27T12:00:00Z
Температура C
2.0
Точка росы
0.0
Направление ветра
310
Скорость ветра (узлы)
10
Метео видимость
6.21
Явления погоды
-SHRA -SHSN
Условия полета
MVFR
Аэропорт подробнее: